Time;durP1;ratioP1;P1;durP2;ratioP2;P2;SDS_P1;SDS_P2;PMS_P1;PMS_P2;Temp;Humidity;BMP_temperature;BMP_pressure;BME280_temperature;BME280_humidity;BME280_pressure;Samples;Min_cycle;Max_cycle;Signal;HPM_P1;HPM_P2
2022/08/02 00:01:28;;;;;;;6.72;2.58;;;;;;;16.69;100.00;96969.50;5020190;28;20696;-68
2022/08/02 00:03:53;;;;;;;5.63;3.15;;;;;;;16.76;100.00;96966.72;5033613;28;20413;-68
2022/08/02 00:06:19;;;;;;;4.60;2.80;;;;;;;16.99;100.00;96974.56;5034907;28;20030;-69
2022/08/02 00:08:44;;;;;;;10.55;3.35;;;;;;;17.25;100.00;96969.66;5035270;28;20033;-69
2022/08/02 00:11:10;;;;;;;6.35;2.88;;;;;;;17.50;100.00;96961.22;5031147;28;20081;-69
2022/08/02 00:13:35;;;;;;;7.35;3.00;;;;;;;17.74;100.00;96960.25;5030195;28;20076;-67
2022/08/02 00:16:01;;;;;;;5.55;2.90;;;;;;;17.51;100.00;96958.03;5016978;28;20037;-68
2022/08/02 00:18:27;;;;;;;6.90;2.72;;;;;;;17.24;100.00;96949.50;5016264;28;20115;-68
2022/08/02 00:20:52;;;;;;;5.90;2.70;;;;;;;16.96;100.00;96948.50;5026802;28;20033;-67
2022/08/02 00:23:18;;;;;;;10.07;2.90;;;;;;;16.99;100.00;96944.13;5035203;28;20505;-67
2022/08/02 00:25:43;;;;;;;9.80;2.67;;;;;;;17.18;100.00;96937.31;5055091;28;20041;-65
2022/08/02 00:28:10;;;;;;;9.73;3.45;;;;;;;17.01;100.00;96936.19;5029600;28;20033;-70
2022/08/02 00:30:35;;;;;;;6.10;2.75;;;;;;;16.98;100.00;96935.03;5011549;28;20036;-69
2022/08/02 00:33:01;;;;;;;6.45;2.75;;;;;;;17.07;100.00;96925.50;5034600;28;20033;-70
2022/08/02 00:35:27;;;;;;;5.18;2.83;;;;;;;17.25;100.00;96926.19;5016843;28;20027;-70
2022/08/02 00:37:52;;;;;;;3.70;2.45;;;;;;;17.32;100.00;96928.09;5017364;28;20069;-69
2022/08/02 00:40:22;;;;;;;4.47;2.60;;;;;;;17.48;100.00;96931.16;5028741;28;20100;-68
2022/08/02 00:43:09;;;;;;;3.92;2.33;;;;;;;17.65;100.00;96917.59;5031958;28;20482;-71
2022/08/02 00:45:39;;;;;;;3.55;2.50;;;;;;;17.36;100.00;96915.06;5033287;28;20048;-69
2022/08/02 00:48:06;;;;;;;5.82;2.78;;;;;;;17.32;100.00;96906.78;5034300;28;20025;-66
2022/08/02 00:50:33;;;;;;;5.47;2.10;;;;;;;17.50;100.00;96908.59;5027152;28;20113;-70
2022/08/02 00:52:59;;;;;;;2.88;1.92;;;;;;;17.65;100.00;96903.75;5029917;28;20427;-69
2022/08/02 00:55:26;;;;;;;3.95;2.35;;;;;;;17.81;100.00;96908.72;5032787;28;20037;-67
2022/08/02 00:57:52;;;;;;;5.55;2.33;;;;;;;17.86;100.00;96908.31;5026317;28;20599;-71
2022/08/02 01:00:17;;;;;;;4.97;2.05;;;;;;;17.87;100.00;96910.69;5033810;28;20117;-71
2022/08/02 01:02:43;;;;;;;3.58;2.10;;;;;;;17.90;100.00;96904.34;5026042;28;20029;-70
2022/08/02 01:05:09;;;;;;;3.92;2.08;;;;;;;17.52;100.00;96904.25;5033968;28;20078;-71
2022/08/02 01:07:35;;;;;;;4.25;2.20;;;;;;;17.16;100.00;96909.22;5034281;28;20796;-67
2022/08/02 01:10:01;;;;;;;5.57;1.98;;;;;;;16.86;100.00;96902.28;5033628;28;20036;-68
2022/08/02 01:12:26;;;;;;;4.35;2.63;;;;;;;16.50;100.00;96902.41;5024546;28;20034;-69
2022/08/02 01:14:55;;;;;;;6.65;2.97;;;;;;;16.35;100.00;96906.41;5033606;28;20034;-69
2022/08/02 01:17:43;;;;;;;3.92;2.50;;;;;;;16.53;100.00;96907.16;5033177;28;20041;-69
2022/08/02 01:20:37;;;;;;;6.03;2.15;;;;;;;16.70;100.00;96908.25;5033642;28;20470;-71
2022/08/02 01:23:27;;;;;;;5.38;2.40;;;;;;;16.82;100.00;96912.56;5032637;28;20045;-70
2022/08/02 01:26:18;;;;;;;;;;;;;;;16.91;100.00;96898.34;5031469;28;20935;-68
2022/08/02 01:28:44;;;;;;;4.32;2.13;;;;;;;17.06;100.00;96899.81;5024049;28;19963;-68
2022/08/02 01:31:17;;;;;;;4.00;2.30;;;;;;;17.19;100.00;96906.44;5016621;28;20065;-70
2022/08/02 01:34:04;;;;;;;3.47;2.10;;;;;;;17.13;100.00;96894.22;5034096;28;20032;-70
2022/08/02 01:36:35;;;;;;;7.30;2.50;;;;;;;16.87;100.00;96897.53;5033375;28;20036;-70
2022/08/02 01:39:04;;;;;;;3.53;2.30;;;;;;;16.67;100.00;96903.53;5023971;28;20030;-70
2022/08/02 01:41:31;;;;;;;4.18;2.28;;;;;;;16.77;100.00;96897.16;5056363;23;20127;-66
2022/08/02 01:44:00;;;;;;;4.00;2.05;;;;;;;16.69;100.00;96892.06;5053212;28;20279;-64
2022/08/02 01:46:27;;;;;;;5.78;2.60;;;;;;;16.49;100.00;96887.00;5052773;28;20528;-66
2022/08/02 01:48:55;;;;;;;4.53;2.65;;;;;;;16.41;100.00;96891.00;5052999;28;20468;-67
2022/08/02 01:52:20;;;;;;;5.57;2.40;;;;;;;16.42;100.00;96893.38;5046987;28;20048;-65
2022/08/02 01:54:14;;;;;;;6.45;2.65;;;;;;;16.21;100.00;96885.94;5052378;28;20053;-65
2022/08/02 01:56:41;;;;;;;6.25;2.35;;;;;;;16.16;100.00;96883.56;5044628;28;20563;-66
2022/08/02 01:59:11;;;;;;;3.17;2.28;;;;;;;16.30;100.00;96887.50;5052598;28;20408;-66
2022/08/02 02:01:39;;;;;;;5.38;2.35;;;;;;;16.35;100.00;96889.81;5052482;28;20021;-65
2022/08/02 02:04:07;;;;;;;2.65;2.00;;;;;;;16.39;100.00;96894.16;5045019;28;20094;-66
2022/08/02 02:06:35;;;;;;;4.07;2.45;;;;;;;16.46;100.00;96887.84;5052352;28;20033;-65
2022/08/02 02:09:01;;;;;;;5.95;2.55;;;;;;;16.29;100.00;96891.44;5052654;28;20024;-66
2022/08/02 02:11:27;;;;;;;2.55;2.00;;;;;;;16.36;100.00;96894.97;5050154;28;20451;-65
2022/08/02 02:13:52;;;;;;;3.00;2.20;;;;;;;16.48;100.00;96895.72;5044390;28;20036;-65
2022/08/02 02:16:18;;;;;;;4.93;2.15;;;;;;;16.50;100.00;96891.38;5052555;28;20032;-65
2022/08/02 02:18:47;;;;;;;5.47;2.85;;;;;;;16.47;100.00;96885.84;5055687;28;20040;-65
2022/08/02 02:21:13;;;;;;;3.13;2.10;;;;;;;16.55;100.00;96876.34;5054930;28;20092;-65
2022/08/02 02:23:38;;;;;;;5.72;2.20;;;;;;;16.66;100.00;96884.59;5052560;28;20166;-64
2022/08/02 02:26:06;;;;;;;3.42;2.00;;;;;;;16.79;100.00;96880.94;5030667;28;20036;-64
2022/08/02 02:28:34;;;;;;;3.25;1.95;;;;;;;16.78;100.00;96881.34;5033979;28;20037;-65
2022/08/02 02:31:05;;;;;;;5.75;2.40;;;;;;;16.80;100.00;96879.78;5053184;28;20040;-65
2022/08/02 02:33:34;;;;;;;3.78;2.05;;;;;;;16.81;100.00;96875.81;5053019;28;20052;-66
2022/08/02 02:36:02;;;;;;;6.90;2.88;;;;;;;16.52;100.00;96877.16;5050660;28;20481;-66
2022/08/02 02:38:31;;;;;;;7.43;3.22;;;;;;;15.95;100.00;96870.59;5051866;28;20029;-66
2022/08/02 02:41:03;;;;;;;8.50;2.65;;;;;;;15.87;100.00;96877.34;5051223;28;20036;-66
2022/08/02 02:43:31;;;;;;;6.20;2.67;;;;;;;16.13;100.00;96872.53;5051906;28;20025;-66
2022/08/02 02:45:57;;;;;;;3.15;2.25;;;;;;;16.29;100.00;96875.63;5048854;28;20029;-65
2022/08/02 02:48:26;;;;;;;4.45;2.45;;;;;;;16.50;100.00;96871.22;5045130;28;20017;-65
2022/08/02 02:50:53;;;;;;;6.18;2.28;;;;;;;16.41;100.00;96874.41;5051750;28;20037;-66
2022/08/02 02:53:19;;;;;;;4.43;2.72;;;;;;;16.09;100.00;96866.25;5052187;28;20088;-66
2022/08/02 02:55:46;;;;;;;4.57;2.67;;;;;;;15.82;100.00;96873.00;5050358;28;20085;-66
2022/08/02 02:58:12;;;;;;;6.70;2.95;;;;;;;15.64;100.00;96867.47;5052057;28;20060;-66
2022/08/02 03:03:23;;;;;;;5.72;2.92;;;;;;;15.31;100.00;96874.19;5052151;28;20039;-66
2022/08/02 03:05:48;;;;;;;5.85;2.90;;;;;;;15.47;100.00;96876.56;5051594;28;20028;-66
2022/08/02 03:08:14;;;;;;;5.85;2.95;;;;;;;15.43;100.00;96875.75;5050589;28;20478;-66
2022/08/02 03:10:42;;;;;;;7.88;3.08;;;;;;;15.37;100.00;96866.28;5051045;28;20048;-65
2022/08/02 03:13:08;;;;;;;4.32;2.60;;;;;;;15.49;100.00;96871.44;5051472;28;20500;-66
2022/08/02 03:15:35;;;;;;;9.30;2.70;;;;;;;15.51;100.00;96866.28;5050235;28;20044;-65
2022/08/02 03:18:01;;;;;;;5.80;2.70;;;;;;;15.46;100.00;96878.50;5042973;28;20083;-65
2022/08/02 03:20:26;;;;;;;5.53;2.63;;;;;;;15.54;100.00;96876.56;5033683;28;20608;-66
2022/08/02 03:22:52;;;;;;;5.65;2.67;;;;;;;15.65;100.00;96874.56;5033538;28;20028;-66
2022/08/02 03:25:17;;;;;;;7.38;2.33;;;;;;;15.83;100.00;96869.06;5042227;28;20107;-65
2022/08/02 03:27:43;;;;;;;5.05;2.65;;;;;;;16.03;100.00;96874.94;5051179;28;20028;-64
2022/08/02 03:30:11;;;;;;;3.20;2.03;;;;;;;16.16;100.00;96864.22;5033189;28;20048;-66
2022/08/02 03:32:38;;;;;;;5.28;2.00;;;;;;;16.18;100.00;96870.16;5033255;28;20112;-65
2022/08/02 03:35:06;;;;;;;3.90;2.08;;;;;;;15.98;100.00;96867.03;5024120;28;20033;-65
2022/08/02 03:37:34;;;;;;;4.15;2.55;;;;;;;15.79;100.00;96862.75;5037252;28;20463;-64
2022/08/02 03:40:00;;;;;;;4.28;2.83;;;;;;;15.22;100.00;96862.75;5051122;28;20033;-65
2022/08/02 03:42:27;;;;;;;6.05;3.15;;;;;;;15.11;100.00;96865.50;5050827;28;20029;-65
2022/08/02 03:44:54;;;;;;;7.32;2.58;;;;;;;15.20;100.00;96867.88;5041812;28;20069;-66
2022/08/02 03:47:21;;;;;;;4.68;2.92;;;;;;;15.24;100.00;96863.94;5039711;28;20529;-65
2022/08/02 03:49:46;;;;;;;11.32;3.10;;;;;;;15.29;100.00;96860.78;5051466;28;20040;-65
2022/08/02 03:52:13;;;;;;;4.30;3.15;;;;;;;15.46;100.00;96867.47;5051241;28;20382;-65
2022/08/02 03:54:38;;;;;;;3.80;2.50;;;;;;;15.55;100.00;96869.84;5042910;28;20037;-65
2022/08/02 03:57:06;;;;;;;5.07;2.15;;;;;;;15.66;100.00;96869.81;5061030;28;20029;-65
2022/08/02 03:59:42;;;;;;;5.40;2.42;;;;;;;15.69;100.00;96874.56;5069405;28;20033;-65
2022/08/02 04:02:08;;;;;;;5.00;2.47;;;;;;;15.52;100.00;96873.41;5051769;28;20143;-66
2022/08/02 04:04:34;;;;;;;4.18;2.72;;;;;;;15.30;100.00;96875.34;5049995;28;20033;-66
2022/08/02 04:06:59;;;;;;;4.15;2.60;;;;;;;15.15;100.00;96868.25;5050212;28;20477;-67
2022/08/02 04:09:24;;;;;;;5.78;2.40;;;;;;;15.08;100.00;96872.56;5050523;28;20079;-65
2022/08/02 04:11:50;;;;;;;4.70;2.70;;;;;;;14.99;100.00;96868.63;5050459;28;20398;-67
2022/08/02 04:14:15;;;;;;;8.50;2.60;;;;;;;14.90;100.00;96871.75;5020006;28;20166;-68
2022/08/02 04:16:44;;;;;;;7.57;3.55;;;;;;;14.86;100.00;96871.75;5050529;28;20076;-65
2022/08/02 04:19:15;;;;;;;4.30;2.60;;;;;;;15.08;100.00;96878.09;5066121;28;20029;-67
2022/08/02 04:21:43;;;;;;;5.72;2.72;;;;;;;15.33;100.00;96882.06;5050909;28;21090;-67
2022/08/02 04:24:11;;;;;;;6.45;3.17;;;;;;;15.57;100.00;96883.25;5050756;28;20040;-67
2022/08/02 04:26:38;;;;;;;9.05;2.50;;;;;;;15.56;100.00;96884.44;5053123;28;20032;-66
2022/08/02 04:29:04;;;;;;;3.30;2.13;;;;;;;15.70;100.00;96878.09;5068645;28;20029;-65
2022/08/02 04:31:30;;;;;;;5.13;2.15;;;;;;;15.74;100.00;96889.97;5060376;28;20033;-65
2022/08/02 04:33:56;;;;;;;6.55;2.50;;;;;;;15.39;100.00;96891.53;5050679;28;20465;-67
2022/08/02 04:36:22;;;;;;;4.55;2.10;;;;;;;15.22;100.00;96896.63;5041136;28;20081;-65
2022/08/02 04:38:48;;;;;;;3.85;2.70;;;;;;;15.18;100.00;96893.09;5050711;28;20025;-65
2022/08/02 04:41:14;;;;;;;4.50;2.03;;;;;;;15.40;100.00;96896.66;5050671;28;20044;-66
2022/08/02 04:43:40;;;;;;;4.65;1.98;;;;;;;15.77;100.00;96886.41;5051123;28;20029;-65
2022/08/02 04:46:05;;;;;;;4.20;2.75;;;;;;;15.91;100.00;96896.66;5049999;28;20041;-65
2022/08/02 04:48:31;;;;;;;7.90;2.78;;;;;;;16.01;100.00;96901.38;5051041;28;20032;-65
2022/08/02 04:50:56;;;;;;;5.25;2.70;;;;;;;16.04;100.00;96895.03;5052711;28;20090;-65
2022/08/02 04:53:21;;;;;;;10.23;2.50;;;;;;;16.26;100.00;96901.31;5054052;28;20037;-66
2022/08/02 04:55:47;;;;;;;3.53;2.10;;;;;;;16.54;100.00;96905.94;5052652;28;20085;-66
2022/08/02 04:58:13;;;;;;;5.15;2.13;;;;;;;16.93;100.00;96904.25;5053985;28;20430;-64
2022/08/02 05:00:39;;;;;;;4.22;2.40;;;;;;;17.18;100.00;96904.09;5049323;28;20094;-65
2022/08/02 05:03:05;;;;;;;4.70;2.00;;;;;;;17.37;100.00;96906.31;5053831;28;20029;-65
2022/08/02 05:05:30;;;;;;;4.18;1.88;;;;;;;17.65;100.00;96903.75;5052995;28;20029;-65
2022/08/02 05:07:56;;;;;;;5.28;2.08;;;;;;;18.08;100.00;96912.47;5045474;28;20396;-65
2022/08/02 05:10:21;;;;;;;5.45;1.88;;;;;;;19.32;100.00;96910.59;5053713;28;20454;-65
2022/08/02 05:12:47;;;;;;;4.97;1.77;;;;;;;21.00;100.00;96908.78;5053603;28;20037;-65
2022/08/02 05:15:15;;;;;;;3.17;1.50;;;;;;;22.68;100.00;96911.44;5045454;28;20056;-65
2022/08/02 05:17:41;;;;;;;5.60;1.67;;;;;;;24.15;91.42;96911.72;5052378;28;20149;-66
2022/08/02 05:20:07;;;;;;;2.78;1.10;;;;;;;25.67;84.00;96919.72;5051715;28;20108;-66
2022/08/02 05:22:32;;;;;;;8.30;1.40;;;;;;;26.46;77.11;96918.47;5053204;28;20436;-66
2022/08/02 05:24:58;;;;;;;5.25;1.52;;;;;;;27.05;71.44;96921.09;5053275;28;20025;-66
2022/08/02 05:27:23;;;;;;;5.30;1.35;;;;;;;27.26;67.59;96913.69;5035294;28;20075;-66
2022/08/02 05:29:50;;;;;;;4.07;1.42;;;;;;;28.71;64.27;96928.69;5044159;28;20033;-66
2022/08/02 05:32:16;;;;;;;3.33;1.40;;;;;;;29.36;59.80;96925.25;5053009;28;20029;-63
2022/08/02 05:34:42;;;;;;;2.25;1.30;;;;;;;29.50;57.56;96920.88;5053099;28;20033;-65
2022/08/02 05:37:07;;;;;;;3.63;1.30;;;;;;;29.55;57.05;96923.75;5055822;28;20079;-65
2022/08/02 05:39:33;;;;;;;4.55;1.65;;;;;;;30.35;54.54;96927.75;5052662;28;20521;-63
2022/08/02 05:41:58;;;;;;;6.80;1.58;;;;;;;30.71;50.45;96931.25;5052778;28;20052;-65
2022/08/02 05:44:24;;;;;;;3.35;1.67;;;;;;;30.77;50.54;96924.38;5041057;28;20162;-65
2022/08/02 05:46:49;;;;;;;5.88;1.38;;;;;;;30.51;50.39;96935.66;5049700;28;20628;-64
2022/08/02 05:49:14;;;;;;;6.28;1.70;;;;;;;30.39;51.33;96936.78;5051808;28;20033;-64
2022/08/02 05:52:03;;;;;;;3.00;1.30;;;;;;;30.86;49.31;96935.53;5052105;28;20037;-65
2022/08/02 05:54:37;;;;;;;2.70;1.10;;;;;;;31.60;46.63;96930.56;5053138;28;20029;-64
2022/08/02 05:57:19;;;;;;;6.13;1.83;;;;;;;30.13;49.67;96929.00;5052655;28;20393;-65
2022/08/02 06:00:08;;;;;;;5.47;1.50;;;;;;;30.07;51.62;96925.28;5050601;28;20029;-65
2022/08/02 06:03:01;;;;;;;;;;;;;;;29.41;54.58;96921.75;5047689;28;20021;-65
2022/08/02 06:05:31;;;;;;;4.88;1.45;;;;;;;24.11;80.44;96919.44;5034624;28;19913;-65
2022/08/02 06:07:58;;;;;;;2.92;1.30;;;;;;;25.66;75.00;96914.56;5051755;28;20044;-64
2022/08/02 06:10:26;;;;;;;2.65;1.60;;;;;;;23.11;91.61;96918.59;5051457;28;20508;-64
2022/08/02 06:13:15;;;;;;;4.43;1.65;;;;;;;22.97;93.19;96907.81;5052561;28;20124;-65
2022/08/02 06:15:41;;;;;;;6.53;1.70;;;;;;;22.06;100.00;96908.72;5052250;28;20036;-65
2022/08/02 06:18:07;;;;;;;5.93;1.73;;;;;;;21.27;100.00;96916.16;5052362;28;20509;-64
2022/08/02 06:20:34;;;;;;;6.10;2.03;;;;;;;21.90;100.00;96913.09;5051400;28;20055;-64
2022/08/02 06:23:07;;;;;;;4.95;1.45;;;;;;;22.79;95.91;96908.34;5043774;28;20478;-64
2022/08/02 06:25:35;;;;;;;4.13;1.80;;;;;;;22.99;94.46;96913.75;5014312;28;20026;-65
2022/08/02 06:28:03;;;;;;;4.65;1.95;;;;;;;23.06;95.29;96914.34;5050296;28;20025;-64
2022/08/02 06:30:30;;;;;;;6.20;2.08;;;;;;;22.30;100.00;96921.25;5051667;28;20077;-64
2022/08/02 06:32:55;;;;;;;3.55;1.95;;;;;;;21.73;100.00;96915.09;5051930;28;20036;-64
2022/08/02 06:35:25;;;;;;;4.50;2.30;;;;;;;22.03;100.00;96909.59;5050442;28;20499;-64
2022/08/02 06:37:55;;;;;;;5.20;2.20;;;;;;;21.58;100.00;96923.00;5038733;28;20115;-63
2022/08/02 06:40:29;;;;;;;5.60;1.92;;;;;;;21.95;100.00;96920.94;5043925;28;20503;-63
2022/08/02 06:43:12;;;;;;;5.65;2.13;;;;;;;22.76;100.00;96915.63;5049262;28;20036;-64
2022/08/02 06:45:38;;;;;;;3.50;2.00;;;;;;;23.47;91.64;96926.66;5039515;28;20064;-66
2022/08/02 06:48:04;;;;;;;3.70;1.67;;;;;;;24.01;88.61;96919.38;5028905;28;20060;-63
2022/08/02 06:50:30;;;;;;;2.85;1.65;;;;;;;25.54;77.81;96919.84;5028676;28;20049;-64
2022/08/02 06:52:55;;;;;;;4.78;2.00;;;;;;;22.33;95.02;96917.56;5042445;28;20125;-65
2022/08/02 06:55:21;;;;;;;5.07;2.33;;;;;;;22.64;96.80;96922.72;5035027;28;20063;-65
2022/08/02 06:57:47;;;;;;;5.07;1.83;;;;;;;23.23;92.76;96915.03;5020913;28;20132;-65
2022/08/02 07:00:13;;;;;;;3.00;2.17;;;;;;;23.07;94.54;96921.50;5028117;28;20037;-65
2022/08/02 07:02:39;;;;;;;3.15;1.73;;;;;;;26.20;76.73;96917.97;5041721;28;20051;-65
2022/08/02 07:05:05;;;;;;;3.33;1.75;;;;;;;28.11;66.15;96912.84;5037652;28;20045;-63
2022/08/02 07:07:31;;;;;;;3.13;1.67;;;;;;;27.46;65.43;96919.59;5039439;28;20084;-65
2022/08/02 07:09:58;;;;;;;4.00;2.03;;;;;;;24.85;77.44;96926.47;5032484;28;20135;-64
2022/08/02 07:12:24;;;;;;;4.80;2.10;;;;;;;23.98;85.90;96923.06;5036282;28;20413;-64
2022/08/02 07:14:49;;;;;;;5.07;1.83;;;;;;;27.09;70.14;96922.47;5040369;28;20041;-65
2022/08/02 07:17:15;;;;;;;4.15;1.80;;;;;;;26.56;72.61;96917.25;5027643;28;20037;-65
2022/08/02 07:19:40;;;;;;;3.90;1.98;;;;;;;27.77;65.67;96912.88;5041661;28;20082;-65
2022/08/02 07:22:05;;;;;;;4.22;1.65;;;;;;;27.19;65.90;96919.63;5032001;28;20041;-65
2022/08/02 07:24:31;;;;;;;2.97;1.20;;;;;;;28.87;60.32;96921.06;5040767;28;20396;-65
2022/08/02 07:26:57;;;;;;;4.13;2.00;;;;;;;25.97;72.67;96927.78;5040035;28;20049;-64
2022/08/02 07:29:23;;;;;;;2.88;1.42;;;;;;;29.28;59.58;96930.50;5028324;28;20507;-65
2022/08/02 07:31:49;;;;;;;4.05;1.60;;;;;;;30.07;57.80;96930.94;5028837;28;20418;-65
2022/08/02 07:34:14;;;;;;;4.40;1.60;;;;;;;28.98;58.92;96927.66;5036324;28;20040;-65
2022/08/02 07:36:39;;;;;;;3.33;1.40;;;;;;;31.28;52.16;96927.72;5040100;28;20037;-64
2022/08/02 07:39:05;;;;;;;4.68;1.90;;;;;;;28.59;62.05;96919.25;5026411;28;20470;-64
2022/08/02 07:41:30;;;;;;;4.88;1.80;;;;;;;30.02;55.75;96921.13;5040772;28;20037;-65
2022/08/02 07:43:56;;;;;;;3.90;1.73;;;;;;;30.11;54.62;96923.06;5041011;28;20051;-65
2022/08/02 07:46:21;;;;;;;3.35;1.60;;;;;;;31.86;48.25;96919.19;5026073;28;20441;-64
2022/08/02 07:48:47;;;;;;;3.63;1.63;;;;;;;31.42;49.26;96918.34;5040653;28;20051;-65
2022/08/02 07:51:13;;;;;;;2.45;1.48;;;;;;;31.00;50.05;96919.75;5037923;28;20056;-65
2022/08/02 07:53:39;;;;;;;4.95;1.73;;;;;;;31.67;49.59;96920.84;5045560;28;20051;-66
2022/08/02 07:56:04;;;;;;;2.15;1.40;;;;;;;27.39;61.89;96916.34;5031273;28;20128;-65
2022/08/02 07:58:30;;;;;;;4.20;1.50;;;;;;;29.76;55.69;96918.19;5045789;28;20052;-65
2022/08/02 08:00:55;;;;;;;3.03;1.60;;;;;;;27.99;64.10;96912.63;5043711;28;20045;-65
2022/08/02 08:03:20;;;;;;;3.15;1.58;;;;;;;26.64;68.81;96914.91;5036015;28;20479;-65
2022/08/02 08:05:46;;;;;;;2.45;1.40;;;;;;;25.53;76.61;96911.88;5039753;28;20484;-65
2022/08/02 08:08:11;;;;;;;2.70;1.60;;;;;;;27.35;67.05;96910.91;5035602;28;20040;-65
2022/08/02 08:10:39;;;;;;;2.85;1.73;;;;;;;27.01;67.96;96909.22;5021024;28;20398;-65
2022/08/02 08:13:04;;;;;;;4.53;1.60;;;;;;;28.96;58.33;96913.28;5035681;28;20071;-65
2022/08/02 08:15:30;;;;;;;2.85;1.60;;;;;;;26.42;67.48;96920.66;5038941;28;20032;-65
2022/08/02 08:17:55;;;;;;;2.78;1.60;;;;;;;25.66;70.77;96909.75;5024151;28;20112;-65
2022/08/02 08:20:21;;;;;;;3.28;1.85;;;;;;;25.07;71.90;96909.63;5032539;28;20488;-65
2022/08/02 08:22:46;;;;;;;3.50;1.60;;;;;;;25.72;75.31;96905.09;5048084;28;20113;-65
2022/08/02 08:25:12;;;;;;;2.20;1.20;;;;;;;26.83;67.15;96910.03;5042631;28;20128;-65
2022/08/02 08:27:37;;;;;;;2.33;1.33;;;;;;;24.47;73.63;96905.00;5040595;28;20041;-68
2022/08/02 08:30:03;;;;;;;2.08;1.55;;;;;;;26.19;70.36;96910.81;5023237;28;20070;-64
2022/08/02 08:32:28;;;;;;;3.50;1.50;;;;;;;28.35;60.26;96915.66;5023575;28;20048;-65
2022/08/02 08:34:54;;;;;;;3.42;1.13;;;;;;;25.27;72.10;96912.09;5043361;28;20056;-65
2022/08/02 08:37:19;;;;;;;2.63;1.42;;;;;;;25.37;72.81;96915.69;5053404;22;20025;-66
2022/08/02 08:39:45;;;;;;;3.53;1.40;;;;;;;26.78;64.44;96913.50;5021542;28;20191;-69
2022/08/02 08:42:10;;;;;;;2.33;1.38;;;;;;;25.39;67.96;96910.44;5019213;28;20041;-67
2022/08/02 08:44:36;;;;;;;2.40;1.45;;;;;;;26.98;62.27;96910.97;5005067;28;20053;-67
2022/08/02 08:47:03;;;;;;;1.73;1.17;;;;;;;26.77;65.09;96907.09;5020500;28;20057;-69
2022/08/02 08:49:40;;;;;;;2.40;1.40;;;;;;;26.15;67.67;96907.41;5020403;28;20041;-67
2022/08/02 08:52:06;;;;;;;3.17;1.48;;;;;;;25.06;70.40;96905.25;4997590;28;20059;-70
2022/08/02 08:54:34;;;;;;;4.53;1.30;;;;;;;25.31;68.49;96901.50;5024871;28;20139;-68
2022/08/02 08:57:03;;;;;;;4.70;1.38;;;;;;;28.20;58.88;96891.06;5008287;28;20041;-68
2022/08/02 08:59:29;;;;;;;;;;;;;;;29.91;52.52;96902.00;5023158;28;20049;-67
2022/08/02 09:01:55;;;;;;;4.55;1.55;;;;;;;27.52;56.71;96908.47;5006387;28;20000;-69
2022/08/02 09:04:21;;;;;;;4.65;1.50;;;;;;;27.80;57.01;96911.94;5001275;28;20044;-69
2022/08/02 09:06:46;;;;;;;3.67;1.20;;;;;;;29.21;53.48;96908.34;5023197;28;20045;-68
2022/08/02 09:09:12;;;;;;;2.28;1.15;;;;;;;25.69;63.16;96914.41;5022676;28;20045;-69
2022/08/02 09:11:38;;;;;;;4.70;1.38;;;;;;;25.84;62.58;96911.84;5028282;28;20052;-67
2022/08/02 09:14:03;;;;;;;2.83;1.13;;;;;;;28.78;53.09;96911.41;5038620;28;20120;-67
2022/08/02 09:16:34;;;;;;;2.72;1.05;;;;;;;27.71;53.72;96920.41;5035589;28;20052;-68
2022/08/02 09:19:20;;;;;;;2.80;1.10;;;;;;;25.94;57.52;96915.47;5022158;28;20057;-69
2022/08/02 09:21:48;;;;;;;3.70;1.20;;;;;;;26.14;59.60;96909.41;5034103;28;20211;-68
2022/08/02 09:24:19;;;;;;;4.65;1.25;;;;;;;26.59;61.31;96907.09;5024739;28;20528;-69
2022/08/02 09:26:45;;;;;;;2.05;1.20;;;;;;;24.89;66.11;96898.31;5021649;28;20049;-69
2022/08/02 09:29:12;;;;;;;2.53;1.27;;;;;;;25.70;63.67;96901.97;5000312;28;20557;-67
2022/08/02 09:31:37;;;;;;;2.05;1.45;;;;;;;25.62;61.62;96908.31;5021600;28;20129;-68
2022/08/02 09:34:03;;;;;;;1.80;1.17;;;;;;;26.38;58.11;96900.38;5019629;28;20124;-70
2022/08/02 09:36:43;;;;;;;2.35;1.30;;;;;;;27.02;55.24;96907.97;4999689;28;20041;-68
2022/08/02 09:39:11;;;;;;;1.50;1.10;;;;;;;29.67;48.99;96910.59;5023052;28;20120;-69
2022/08/02 09:41:40;;;;;;;4.13;1.40;;;;;;;27.55;54.03;96904.72;5024376;28;20045;-69
2022/08/02 09:44:08;;;;;;;4.22;1.30;;;;;;;27.29;57.13;96909.19;5005738;28;20033;-69
2022/08/02 09:46:37;;;;;;;2.63;1.02;;;;;;;27.34;54.52;96903.69;5027240;28;20117;-69
2022/08/02 09:49:13;;;;;;;2.10;1.10;;;;;;;27.90;50.84;96909.06;5031004;28;20081;-67
2022/08/02 09:51:48;;;;;;;1.10;0.80;;;;;;;27.90;51.38;96906.25;5035428;28;20152;-67
2022/08/02 09:54:27;;;;;;;2.92;0.85;;;;;;;28.31;50.77;96907.41;5029442;28;20109;-69
2022/08/02 09:56:56;;;;;;;4.35;1.20;;;;;;;27.17;54.20;96899.66;5035551;28;20068;-69
2022/08/02 09:59:24;;;;;;;2.90;1.70;;;;;;;29.39;53.68;96892.44;5036218;28;20096;-69
2022/08/02 10:01:51;;;;;;;4.85;1.20;;;;;;;29.74;48.64;96892.47;5036179;28;20095;-69
2022/08/02 10:04:20;;;;;;;4.80;1.10;;;;;;;29.82;48.28;96892.88;4998071;28;20515;-69
2022/08/02 10:06:48;;;;;;;2.25;1.10;;;;;;;28.86;50.33;96891.28;5006566;28;20057;-67
2022/08/02 10:09:14;;;;;;;9.10;1.20;;;;;;;26.95;55.96;96886.59;5018025;28;20052;-69
2022/08/02 10:11:40;;;;;;;3.95;1.10;;;;;;;28.54;49.76;96888.13;5003670;28;20045;-68
2022/08/02 10:14:08;;;;;;;3.92;1.20;;;;;;;28.79;49.22;96878.34;5012943;28;20041;-67
2022/08/02 10:16:36;;;;;;;3.05;0.88;;;;;;;28.65;48.91;96868.66;5021749;28;20103;-67
2022/08/02 10:19:03;;;;;;;3.75;1.30;;;;;;;28.82;49.84;96871.00;5026199;28;20129;-69
2022/08/02 10:21:32;;;;;;;2.25;1.00;;;;;;;28.26;52.74;96868.63;5003363;28;20045;-69
2022/08/02 10:24:12;;;;;;;3.22;1.23;;;;;;;26.99;55.35;96861.94;5024366;28;20042;-69
2022/08/02 10:26:41;;;;;;;2.78;1.13;;;;;;;25.77;60.77;96864.44;5019906;28;20041;-69
2022/08/02 10:29:08;;;;;;;2.00;1.30;;;;;;;25.75;60.08;96872.53;5004159;28;20056;-67
2022/08/02 10:32:03;;;;;;;2.90;1.83;;;;;;;26.41;59.78;96862.94;5034262;28;20056;-68
2022/08/02 10:34:39;;;;;;;1.77;1.15;;;;;;;28.17;53.59;96860.28;5023183;28;20049;-69
2022/08/02 10:37:07;;;;;;;3.03;1.25;;;;;;;28.56;50.47;96851.84;5003079;28;20044;-69
2022/08/02 10:39:43;;;;;;;1.55;1.10;;;;;;;27.34;54.93;96847.47;5020623;28;20497;-68
2022/08/02 10:42:08;;;;;;;4.80;1.42;;;;;;;28.51;51.56;96849.66;5013497;28;20107;-68
2022/08/02 10:44:35;;;;;;;4.35;1.38;;;;;;;28.55;51.43;96851.03;5021774;28;20038;-70
2022/08/02 10:47:13;;;;;;;2.75;1.02;;;;;;;28.00;52.91;96846.63;5020315;28;20055;-68
2022/08/02 10:49:56;;;;;;;4.43;2.25;;;;;;;27.80;62.12;96846.41;4996530;28;20501;-69
2022/08/02 10:52:29;;;;;;;5.88;1.90;;;;;;;27.54;60.97;96840.50;5002672;28;20053;-69
2022/08/02 10:54:58;;;;;;;4.15;2.00;;;;;;;28.78;60.27;96843.00;5020777;28;20037;-68
2022/08/02 10:57:34;;;;;;;4.38;2.17;;;;;;;28.79;59.14;96833.25;4997459;28;20049;-68
2022/08/02 10:59:59;;;;;;;3.90;2.10;;;;;;;28.75;58.83;96838.31;5022137;28;20091;-68
2022/08/02 11:02:35;;;;;;;6.53;1.93;;;;;;;28.54;57.88;96828.97;5015347;28;20049;-69
2022/08/02 11:05:06;;;;;;;5.63;2.03;;;;;;;27.83;61.46;96834.22;5020997;28;20280;-69
2022/08/02 11:07:35;;;;;;;2.88;1.63;;;;;;;28.05;62.76;96831.09;5018602;28;20060;-69
2022/08/02 11:10:23;;;;;;;4.50;1.92;;;;;;;27.94;61.52;96833.69;5020543;28;20060;-69
2022/08/02 11:12:59;;;;;;;3.78;2.20;;;;;;;27.38;66.57;96830.41;5017590;28;20056;-69
2022/08/02 11:15:24;;;;;;;3.38;1.90;;;;;;;27.51;65.56;96828.13;5014970;28;20385;-69
2022/08/02 11:17:54;;;;;;;2.30;1.60;;;;;;;26.77;64.43;96830.47;5020045;28;20037;-69
2022/08/02 11:20:21;;;;;;;2.88;1.80;;;;;;;27.43;64.46;96826.94;5012016;28;20052;-71
2022/08/02 11:22:49;;;;;;;2.67;2.03;;;;;;;27.11;68.92;96829.25;5021750;28;20493;-69
2022/08/02 11:25:21;;;;;;;3.97;2.35;;;;;;;27.03;68.13;96833.66;5016163;28;20371;-69
2022/08/02 11:28:10;;;;;;;7.25;2.40;;;;;;;27.19;67.23;96830.47;5019931;28;20045;-68
2022/08/02 11:30:36;;;;;;;3.75;2.55;;;;;;;27.12;68.01;96833.63;5010621;28;20039;-67
2022/08/02 11:33:02;;;;;;;6.35;2.70;;;;;;;27.10;67.95;96830.53;5020119;28;20045;-69
2022/08/02 11:35:37;;;;;;;3.10;2.10;;;;;;;27.18;67.05;96822.50;5000045;28;20049;-69
2022/08/02 11:38:17;;;;;;;3.75;1.80;;;;;;;27.53;64.13;96819.22;5023558;28;20049;-68